Time;durP1;ratioP1;P1;durP2;ratioP2;P2;SDS_P1;SDS_P2;PMS_P1;PMS_P2;Temp;Humidity;BMP_temperature;BMP_pressure;BME280_temperature;BME280_humidity;BME280_pressure;Samples;Min_cycle;Max_cycle;Signal;HPM_P1;HPM_P2
2021/10/25 00:00:21;;;;;;;7.60;6.87;;;;;;;7.40;71.65;101643.34;5078518;28;20415;-66
2021/10/25 00:02:46;;;;;;;11.10;6.80;;;;;;;7.11;72.29;101646.56;5080746;28;20210;-65
2021/10/25 00:05:11;;;;;;;9.50;6.60;;;;;;;7.28;71.65;101640.28;5080652;28;20172;-66
2021/10/25 00:07:37;;;;;;;7.37;6.37;;;;;;;7.23;71.49;101639.22;5079762;28;20172;-65
2021/10/25 00:10:04;;;;;;;6.67;5.97;;;;;;;7.31;72.75;101636.94;5079161;28;20175;-66
2021/10/25 00:12:29;;;;;;;7.60;6.47;;;;;;;7.36;71.58;101628.50;5077178;28;20196;-65
2021/10/25 00:14:55;;;;;;;7.17;6.03;;;;;;;7.09;72.70;101625.75;5077986;28;20397;-64
2021/10/25 00:17:20;;;;;;;7.27;6.40;;;;;;;7.49;71.60;101626.34;5078614;28;20224;-64
2021/10/25 00:19:45;;;;;;;7.83;6.53;;;;;;;7.12;72.54;101624.97;5078025;28;20164;-65
2021/10/25 00:22:11;;;;;;;6.70;6.10;;;;;;;7.28;71.49;101626.44;5077968;28;20180;-65
2021/10/25 00:24:36;;;;;;;7.70;6.60;;;;;;;7.35;70.60;101618.06;5078361;28;20165;-65
2021/10/25 00:27:02;;;;;;;6.57;5.90;;;;;;;7.18;72.25;101627.78;5078006;28;20177;-65
2021/10/25 00:29:27;;;;;;;7.23;6.07;;;;;;;7.46;71.53;101621.06;5077931;28;20226;-65
2021/10/25 00:31:52;;;;;;;7.13;6.40;;;;;;;7.22;71.35;101619.31;5078320;28;20176;-65
2021/10/25 00:34:17;;;;;;;8.27;7.37;;;;;;;7.42;71.11;101607.94;5079600;28;20180;-66
2021/10/25 00:36:43;;;;;;;8.50;6.47;;;;;;;7.37;70.73;101614.72;5077994;28;20212;-66
2021/10/25 00:39:09;;;;;;;8.63;7.07;;;;;;;7.15;71.85;101610.41;5078553;28;20175;-66
2021/10/25 00:41:34;;;;;;;9.10;6.77;;;;;;;7.40;70.72;101609.63;5077697;28;20172;-66
2021/10/25 00:43:59;;;;;;;8.47;5.90;;;;;;;7.53;70.27;101604.88;5077766;28;20279;-65
2021/10/25 00:46:25;;;;;;;7.27;6.57;;;;;;;7.48;70.78;101593.44;5078422;28;20223;-65
2021/10/25 00:48:50;;;;;;;9.67;6.70;;;;;;;7.44;70.53;101601.94;5077843;28;20560;-65
2021/10/25 00:51:16;;;;;;;8.87;6.90;;;;;;;7.38;70.49;101606.06;5077509;28;20220;-66
2021/10/25 00:53:42;;;;;;;7.07;6.43;;;;;;;7.23;71.78;101597.75;5078274;28;20515;-65
2021/10/25 00:56:08;;;;;;;8.90;6.77;;;;;;;7.35;70.85;101605.09;5077548;28;20562;-66
2021/10/25 00:58:34;;;;;;;11.43;6.97;;;;;;;7.35;71.95;101603.38;5077470;28;20423;-66
2021/10/25 01:00:59;;;;;;;8.20;7.17;;;;;;;7.42;70.92;101602.75;5077904;28;20414;-65
2021/10/25 01:03:25;;;;;;;8.60;7.77;;;;;;;7.22;72.11;101606.34;5077485;28;20679;-66
2021/10/25 01:05:51;;;;;;;9.13;8.23;;;;;;;7.24;71.57;101605.56;5077537;28;20190;-66
2021/10/25 01:08:16;;;;;;;11.40;8.73;;;;;;;6.98;71.77;101608.88;5077852;28;20453;-66
2021/10/25 01:10:42;;;;;;;7.43;6.70;;;;;;;6.76;73.34;101614.97;5077324;28;20183;-66
2021/10/25 01:13:09;;;;;;;8.07;7.00;;;;;;;6.97;72.22;101605.41;5077383;28;20195;-67
2021/10/25 01:15:35;;;;;;;7.80;6.77;;;;;;;7.16;72.43;101601.81;5077754;28;20811;-66
2021/10/25 01:18:00;;;;;;;8.57;7.27;;;;;;;7.38;71.14;101593.09;5077240;28;20458;-65
2021/10/25 01:20:28;;;;;;;8.80;6.27;;;;;;;6.76;72.32;101596.81;5077269;28;20197;-65
2021/10/25 01:22:54;;;;;;;8.10;7.30;;;;;;;7.17;72.54;101592.31;5079813;28;20161;-66
2021/10/25 01:25:20;;;;;;;7.83;7.03;;;;;;;7.07;71.67;101584.19;5080859;28;20477;-65
2021/10/25 01:27:45;;;;;;;9.57;7.10;;;;;;;7.31;71.38;101585.94;5080909;28;20460;-65
2021/10/25 01:30:10;;;;;;;11.90;7.80;;;;;;;7.31;70.85;101585.94;5081229;28;20404;-65
2021/10/25 01:32:36;;;;;;;7.60;6.80;;;;;;;7.00;71.83;101582.19;5080510;28;20173;-65
2021/10/25 01:35:02;;;;;;;8.00;6.90;;;;;;;7.39;70.74;101583.63;5080794;28;20181;-65
2021/10/25 01:37:28;;;;;;;8.57;7.00;;;;;;;7.24;71.34;101590.00;5081077;28;20196;-66
2021/10/25 01:39:53;;;;;;;8.03;6.97;;;;;;;7.04;72.03;101583.22;5080587;28;20447;-66
2021/10/25 01:42:20;;;;;;;7.17;6.50;;;;;;;7.29;70.91;101578.91;5080404;28;20222;-66
2021/10/25 01:44:45;;;;;;;7.73;6.67;;;;;;;6.88;71.75;101581.72;5081094;28;20199;-66
2021/10/25 01:47:10;;;;;;;7.80;7.00;;;;;;;7.33;70.52;101573.88;5080293;28;20758;-66
2021/10/25 01:49:36;;;;;;;7.23;6.57;;;;;;;7.04;71.23;101571.13;5080421;28;20169;-64
2021/10/25 01:52:01;;;;;;;7.77;6.97;;;;;;;7.20;71.62;101566.50;5093889;28;20220;-64
2021/10/25 01:54:27;;;;;;;6.90;6.20;;;;;;;7.46;70.66;101569.16;5100702;28;20176;-66
2021/10/25 01:56:52;;;;;;;7.47;6.30;;;;;;;7.54;70.59;101562.53;5100807;28;20193;-65
2021/10/25 01:59:18;;;;;;;7.13;6.33;;;;;;;7.51;69.41;101557.22;5100543;28;20172;-66
2021/10/25 02:01:44;;;;;;;9.87;6.77;;;;;;;7.45;70.13;101568.25;5099560;28;20165;-66
2021/10/25 02:04:09;;;;;;;7.40;6.70;;;;;;;7.52;69.44;101557.28;5100875;28;20234;-65
2021/10/25 02:06:35;;;;;;;8.50;6.50;;;;;;;7.56;69.70;101560.88;5100374;28;20747;-66
2021/10/25 02:09:00;;;;;;;7.17;6.10;;;;;;;7.60;70.17;101557.53;5100461;28;20190;-65
2021/10/25 02:11:26;;;;;;;7.03;6.43;;;;;;;7.53;69.97;101560.75;5100533;28;20188;-65
2021/10/25 02:13:52;;;;;;;7.43;6.60;;;;;;;7.65;69.44;101560.31;5100427;28;20168;-66
2021/10/25 02:16:17;;;;;;;9.63;7.30;;;;;;;7.55;69.47;101553.91;5100158;28;20460;-66
2021/10/25 02:18:43;;;;;;;6.80;6.10;;;;;;;7.42;70.70;101553.47;5100951;28;20415;-66
2021/10/25 02:21:09;;;;;;;7.03;6.33;;;;;;;7.36;70.70;101547.19;5099287;28;20476;-65
2021/10/25 02:23:35;;;;;;;7.60;6.80;;;;;;;7.60;70.95;101541.97;5100399;28;20165;-65
2021/10/25 02:26:00;;;;;;;8.50;7.60;;;;;;;7.75;69.53;101537.34;5106005;28;20850;-64
2021/10/25 02:28:26;;;;;;;6.87;6.27;;;;;;;7.63;70.53;101534.31;5105844;28;20179;-64
2021/10/25 02:30:52;;;;;;;6.70;6.10;;;;;;;7.66;70.49;101533.50;5105381;28;20233;-64
2021/10/25 02:33:18;;;;;;;7.53;6.50;;;;;;;7.56;69.58;101542.69;5100559;28;20772;-64
2021/10/25 02:35:44;;;;;;;7.93;7.13;;;;;;;7.57;70.64;101528.91;5100069;28;20581;-64
2021/10/25 02:38:09;;;;;;;7.60;6.90;;;;;;;7.66;69.72;101526.63;5099981;28;20512;-64
2021/10/25 02:40:34;;;;;;;7.67;6.80;;;;;;;7.76;69.86;101533.00;5101325;28;20165;-65
2021/10/25 02:43:00;;;;;;;8.17;7.37;;;;;;;7.59;70.63;101528.13;5103359;28;20168;-65
2021/10/25 02:45:26;;;;;;;10.00;6.57;;;;;;;7.73;70.25;101538.97;5102815;28;20592;-65
2021/10/25 02:47:52;;;;;;;7.37;6.67;;;;;;;7.75;70.11;101541.63;5101572;28;20195;-64
2021/10/25 02:50:17;;;;;;;7.30;6.57;;;;;;;7.82;69.71;101530.63;5096990;28;20491;-65
2021/10/25 02:52:43;;;;;;;10.40;7.30;;;;;;;7.71;69.48;101530.28;5079416;28;20169;-65
2021/10/25 02:55:08;;;;;;;7.37;6.53;;;;;;;7.73;69.57;101530.31;5080117;28;20161;-66
2021/10/25 02:57:34;;;;;;;7.40;6.70;;;;;;;7.79;69.59;101521.84;5079124;28;20212;-66
2021/10/25 03:00:00;;;;;;;6.90;6.20;;;;;;;7.87;68.94;101530.78;5078962;28;20180;-66
2021/10/25 03:02:26;;;;;;;7.43;6.73;;;;;;;7.72;70.54;101515.56;5079391;28;20591;-66
2021/10/25 03:04:51;;;;;;;8.30;7.50;;;;;;;7.66;70.32;101521.44;5079013;28;20173;-66
2021/10/25 03:07:17;;;;;;;7.33;6.60;;;;;;;7.62;70.75;101524.75;5079067;28;20400;-65
2021/10/25 03:09:42;;;;;;;8.53;7.50;;;;;;;7.47;70.28;101524.22;5079503;28;20169;-65
2021/10/25 03:12:08;;;;;;;9.93;6.97;;;;;;;7.47;70.08;101524.22;5078746;28;20558;-67
2021/10/25 03:14:33;;;;;;;8.73;6.47;;;;;;;7.05;71.70;101514.97;5078887;28;20177;-65
2021/10/25 03:16:58;;;;;;;7.70;6.70;;;;;;;7.16;70.82;101511.06;5079635;28;20616;-66
2021/10/25 03:19:25;;;;;;;9.20;7.50;;;;;;;6.66;73.00;101518.72;5061514;28;20175;-65
2021/10/25 03:21:50;;;;;;;9.10;7.43;;;;;;;7.08;72.11;101515.94;5078696;28;20218;-66
2021/10/25 03:24:16;;;;;;;8.60;7.80;;;;;;;7.12;72.38;101516.06;5079039;28;20402;-66
2021/10/25 03:26:41;;;;;;;9.87;7.40;;;;;;;6.70;72.88;101515.41;5078642;28;20218;-65
2021/10/25 03:29:07;;;;;;;14.00;7.73;;;;;;;7.00;72.93;101512.19;5078639;28;20200;-65
2021/10/25 03:31:32;;;;;;;8.27;7.47;;;;;;;6.86;72.26;101521.16;5079045;28;20164;-65
2021/10/25 03:33:58;;;;;;;8.80;7.47;;;;;;;6.92;72.94;101508.44;5078573;28;20183;-65
2021/10/25 03:36:26;;;;;;;10.17;8.37;;;;;;;6.43;73.65;101529.88;5078603;28;20200;-65
2021/10/25 03:38:52;;;;;;;7.83;7.03;;;;;;;6.62;74.20;101516.84;5078939;28;20223;-64
2021/10/25 03:41:22;;;;;;;8.70;7.80;;;;;;;6.36;74.49;101521.88;5078260;28;20418;-65
2021/10/25 03:43:56;;;;;;;9.37;8.03;;;;;;;6.70;73.04;101511.97;5078389;28;20169;-65
2021/10/25 03:46:41;;;;;;;8.80;7.90;;;;;;;6.87;73.18;101508.28;5078029;28;20370;-65
2021/10/25 03:49:16;;;;;;;8.87;7.70;;;;;;;6.35;74.25;101517.53;5078521;28;20455;-64
2021/10/25 03:51:43;;;;;;;9.03;8.13;;;;;;;6.71;74.31;101503.34;5078106;28;20476;-65
2021/10/25 03:59:41;;;;;;;12.13;7.73;;;;;;;6.69;74.10;101510.19;5078308;28;20423;-65
2021/10/25 04:12:59;;;;;;;9.03;8.23;;;;;;;6.68;73.65;101511.88;5078127;28;20181;-64
2021/10/25 04:13:49;;;;;;;10.53;8.37;;;;;;;6.93;73.28;101511.91;5077975;28;20765;-64
2021/10/25 04:29:01;;;;;;;12.00;9.23;;;;;;;6.76;73.84;101506.13;5060602;28;20469;-65
2021/10/25 04:31:26;;;;;;;10.43;9.43;;;;;;;6.62;73.79;101509.06;5077976;28;20177;-64
2021/10/25 04:33:52;;;;;;;11.33;9.97;;;;;;;6.28;74.64;101512.03;5078510;28;20558;-65
2021/10/25 04:36:17;;;;;;;14.53;8.80;;;;;;;6.64;74.54;101504.81;5077925;28;20189;-64
2021/10/25 04:38:42;;;;;;;9.83;8.83;;;;;;;6.73;73.90;101506.88;5077622;28;20188;-65
2021/10/25 04:41:07;;;;;;;10.10;9.13;;;;;;;6.78;74.12;101500.16;5078087;28;20493;-64
2021/10/25 04:43:33;;;;;;;14.50;10.07;;;;;;;6.84;73.75;101497.78;5077700;28;20177;-65
2021/10/25 04:45:58;;;;;;;10.60;9.43;;;;;;;6.86;73.46;101498.75;5060135;28;20472;-65
2021/10/25 04:48:23;;;;;;;10.87;9.17;;;;;;;7.12;72.62;101508.28;5078297;28;20181;-65
2021/10/25 04:50:49;;;;;;;10.63;9.63;;;;;;;7.04;72.46;101493.34;5077354;28;20260;-65
2021/10/25 04:53:15;;;;;;;9.57;8.67;;;;;;;7.03;72.87;101488.09;5077811;28;20255;-65
2021/10/25 04:55:40;;;;;;;10.30;9.20;;;;;;;7.09;72.82;101488.34;5078440;28;20259;-64
2021/10/25 04:58:05;;;;;;;11.30;9.37;;;;;;;6.84;73.39;101491.72;5081464;28;20247;-65
2021/10/25 05:00:30;;;;;;;10.73;9.07;;;;;;;6.77;73.67;101493.22;5063885;28;20291;-65
2021/10/25 05:02:57;;;;;;;11.30;9.47;;;;;;;7.08;72.41;101489.16;5081764;28;20441;-65
2021/10/25 05:05:22;;;;;;;10.37;9.30;;;;;;;7.37;71.49;101489.28;5081150;28;20177;-65
2021/10/25 05:07:47;;;;;;;11.37;9.40;;;;;;;7.26;71.86;101488.91;5063978;28;20411;-65
2021/10/25 05:10:13;;;;;;;12.33;10.23;;;;;;;6.99;72.69;101478.44;5081806;28;20161;-65
2021/10/25 05:12:38;;;;;;;11.43;9.20;;;;;;;6.69;74.73;101482.56;5081041;28;20453;-65
2021/10/25 05:15:04;;;;;;;12.37;10.73;;;;;;;7.13;72.61;101491.91;5080924;28;20177;-66
2021/10/25 05:17:30;;;;;;;11.87;10.20;;;;;;;7.20;72.47;101483.53;5081437;28;20197;-65
2021/10/25 05:19:56;;;;;;;12.67;10.40;;;;;;;7.14;72.36;101486.75;5082107;28;20234;-65
2021/10/25 05:22:22;;;;;;;14.20;9.70;;;;;;;7.03;72.73;101491.56;5084988;28;20390;-67
2021/10/25 05:24:48;;;;;;;10.60;9.50;;;;;;;6.96;72.92;101481.81;5084682;28;20188;-64
2021/10/25 05:27:14;;;;;;;13.80;9.87;;;;;;;6.98;73.35;101485.34;5084530;28;20415;-64
2021/10/25 05:29:41;;;;;;;11.43;9.33;;;;;;;7.12;72.98;101493.63;5085011;28;20173;-64
2021/10/25 05:32:06;;;;;;;11.73;9.87;;;;;;;7.18;72.94;101487.75;5085732;28;20403;-64
2021/10/25 05:34:32;;;;;;;11.50;9.93;;;;;;;7.25;72.47;101492.34;5067217;28;20655;-65
2021/10/25 05:36:58;;;;;;;10.73;9.57;;;;;;;7.15;72.42;101479.88;5081157;28;20287;-64
2021/10/25 05:39:23;;;;;;;12.13;9.30;;;;;;;7.17;72.71;101488.59;5081069;28;20560;-66
2021/10/25 05:41:48;;;;;;;10.17;9.17;;;;;;;7.45;72.48;101477.47;5080629;28;20551;-65
2021/10/25 05:44:14;;;;;;;12.20;11.00;;;;;;;7.30;72.17;101470.03;5080790;28;20179;-65
2021/10/25 05:46:39;;;;;;;14.73;10.43;;;;;;;7.29;72.63;101470.00;5081037;28;20179;-65
2021/10/25 05:49:05;;;;;;;11.80;10.13;;;;;;;7.32;73.92;101467.50;5081036;28;20164;-64
2021/10/25 05:51:31;;;;;;;10.73;9.63;;;;;;;7.20;73.49;101483.53;5081177;28;20514;-65
2021/10/25 05:53:58;;;;;;;10.83;9.73;;;;;;;7.31;73.29;101469.22;5080950;28;20436;-65
2021/10/25 05:56:25;;;;;;;10.93;9.83;;;;;;;7.31;73.31;101465.75;5080239;28;20425;-65
2021/10/25 05:58:51;;;;;;;11.70;8.67;;;;;;;7.17;73.76;101454.88;5080365;28;20456;-65
2021/10/25 06:01:18;;;;;;;12.93;9.80;;;;;;;7.32;73.92;101457.13;5080061;28;20419;-65
2021/10/25 06:03:46;;;;;;;11.50;10.30;;;;;;;7.49;72.25;101460.31;5088519;28;20171;-65
2021/10/25 06:06:12;;;;;;;14.10;10.50;;;;;;;7.28;73.28;101463.03;5094465;28;20469;-64
2021/10/25 06:08:39;;;;;;;15.83;10.27;;;;;;;7.30;74.17;101459.66;5079950;28;20435;-64
2021/10/25 06:11:05;;;;;;;13.67;10.90;;;;;;;7.59;72.70;101467.56;5093787;28;20207;-64
2021/10/25 06:13:36;;;;;;;16.23;11.00;;;;;;;7.40;72.97;101459.16;5082718;28;20771;-64
2021/10/25 06:16:14;;;;;;;12.50;11.20;;;;;;;7.65;72.48;101465.16;5100336;28;20168;-64
2021/10/25 06:18:40;;;;;;;14.70;12.23;;;;;;;7.70;72.00;101465.34;5097090;28;20407;-64
2021/10/25 06:21:06;;;;;;;12.73;11.27;;;;;;;7.68;72.46;101460.06;5080028;28;20780;-64
2021/10/25 06:23:33;;;;;;;12.03;10.83;;;;;;;7.73;72.64;101457.66;5079702;28;20401;-64
2021/10/25 06:25:58;;;;;;;15.03;10.90;;;;;;;7.82;72.15;101454.44;5079896;28;20536;-64
2021/10/25 06:28:25;;;;;;;17.03;10.47;;;;;;;7.77;72.36;101459.50;5080171;28;20378;-62
2021/10/25 06:30:59;;;;;;;14.27;9.73;;;;;;;7.92;72.57;101466.91;5079478;28;20259;-62
2021/10/25 06:33:24;;;;;;;15.20;10.63;;;;;;;8.06;71.11;101454.34;5079446;28;20853;-63
2021/10/25 06:36:01;;;;;;;10.70;9.07;;;;;;;7.96;71.30;101458.38;5083283;28;20419;-63
2021/10/25 06:38:31;;;;;;;14.40;9.30;;;;;;;8.00;71.25;101457.66;5099673;28;20602;-63
2021/10/25 06:40:58;;;;;;;14.87;9.97;;;;;;;8.04;72.05;101456.91;5099552;28;20429;-63
2021/10/25 06:43:23;;;;;;;12.40;9.70;;;;;;;8.07;71.17;101457.00;5099771;28;20467;-64
2021/10/25 06:45:50;;;;;;;13.17;10.47;;;;;;;7.98;71.59;101467.09;5100039;28;20665;-63
2021/10/25 06:48:15;;;;;;;10.97;9.77;;;;;;;8.07;70.96;101464.78;5099564;28;20218;-63
2021/10/25 06:50:41;;;;;;;13.20;9.87;;;;;;;8.39;70.61;101464.91;5099285;28;20432;-63
2021/10/25 06:53:07;;;;;;;11.17;9.40;;;;;;;8.40;70.00;101468.38;5099944;28;20164;-64
2021/10/25 06:55:34;;;;;;;12.10;9.30;;;;;;;8.39;69.68;101464.91;5099210;28;20164;-63
2021/10/25 06:57:59;;;;;;;10.73;9.50;;;;;;;8.35;69.64;101464.75;5099304;28;20207;-63
2021/10/25 07:00:25;;;;;;;12.27;10.43;;;;;;;8.67;69.09;101464.88;5099670;28;20978;-62
2021/10/25 07:02:50;;;;;;;10.23;9.20;;;;;;;8.59;68.67;101459.44;5099390;28;20168;-62
2021/10/25 07:05:16;;;;;;;11.03;9.20;;;;;;;9.49;66.66;101472.31;5099270;28;20176;-63
2021/10/25 07:07:41;;;;;;;10.20;8.47;;;;;;;10.03;63.92;101469.31;5099476;28;20157;-62
2021/10/25 07:10:08;;;;;;;11.67;10.23;;;;;;;10.46;62.17;101474.66;5093897;28;20244;-63
2021/10/25 07:12:33;;;;;;;9.80;8.23;;;;;;;10.55;60.94;101468.75;5078818;28;20501;-62
2021/10/25 07:15:00;;;;;;;10.30;9.00;;;;;;;10.88;61.08;101472.91;5079516;28;20404;-64
2021/10/25 07:20:18;;;;;;;8.97;8.07;;;;;;;11.29;59.49;101462.41;5077862;28;20415;-64
2021/10/25 07:59:32;;;;;;;8.70;7.60;;;;;;;11.19;60.02;101476.13;5078433;28;20459;-64
2021/10/25 08:06:46;;;;;;;8.90;8.00;;;;;;;16.66;43.74;101462.00;5078907;28;20841;-66
2021/10/25 08:09:21;;;;;;;9.63;7.80;;;;;;;16.06;44.79;101464.78;5078353;28;20414;-66
2021/10/25 08:11:54;;;;;;;7.93;7.17;;;;;;;16.35;44.07;101458.59;5060543;28;20435;-65
2021/10/25 08:14:27;;;;;;;8.83;8.10;;;;;;;16.21;44.57;101463.88;5078200;28;20419;-65
2021/10/25 08:16:55;;;;;;;9.43;8.20;;;;;;;16.30;44.35;101464.75;5077729;28;20550;-66
2021/10/25 08:19:25;;;;;;;9.03;8.10;;;;;;;14.37;48.00;101468.72;5077987;28;20447;-65
2021/10/25 08:22:02;;;;;;;10.30;8.60;;;;;;;14.22;48.93;101461.66;5060917;28;20684;-65
2021/10/25 08:24:30;;;;;;;9.17;8.17;;;;;;;14.80;48.08;101455.84;5077879;28;20541;-65
2021/10/25 08:26:56;;;;;;;9.60;8.60;;;;;;;14.60;48.37;101447.84;5077715;28;20431;-66
2021/10/25 08:29:22;;;;;;;11.43;8.00;;;;;;;15.24;47.18;101455.09;5079354;28;20423;-66
2021/10/25 08:31:56;;;;;;;8.83;7.97;;;;;;;15.07;47.15;101447.19;5081626;28;20164;-67
2021/10/25 08:39:48;;;;;;;9.53;8.40;;;;;;;17.64;41.54;101454.38;5082064;28;20419;-65
2021/10/25 08:42:23;;;;;;;10.43;8.33;;;;;;;16.50;44.26;101458.53;5081627;28;20426;-64
2021/10/25 08:44:58;;;;;;;9.20;8.40;;;;;;;17.09;43.18;101458.28;5064409;28;20421;-65
2021/10/25 08:47:27;;;;;;;9.20;8.30;;;;;;;16.97;43.36;101446.94;5081783;28;20430;-66
2021/10/25 08:49:54;;;;;;;14.30;8.90;;;;;;;17.61;41.98;101446.50;5081555;28;20429;-65
2021/10/25 08:52:22;;;;;;;9.30;8.50;;;;;;;17.50;42.19;101429.00;5100633;28;20514;-65
2021/10/25 08:54:49;;;;;;;8.17;7.40;;;;;;;16.76;43.46;101444.38;5102063;28;20406;-65
2021/10/25 08:57:15;;;;;;;10.40;8.30;;;;;;;18.37;40.42;101430.81;5101414;28;20469;-65
2021/10/25 08:59:40;;;;;;;9.20;8.30;;;;;;;18.24;40.55;101429.22;5101667;28;20417;-65
2021/10/25 09:02:07;;;;;;;9.57;8.60;;;;;;;17.59;41.13;101433.34;5101844;28;20444;-64
2021/10/25 09:04:33;;;;;;;9.07;8.27;;;;;;;17.55;41.79;101434.25;5101599;28;20240;-65
2021/10/25 09:06:58;;;;;;;9.63;8.10;;;;;;;18.44;40.23;101421.97;5101938;28;20421;-65
2021/10/25 09:09:25;;;;;;;13.53;9.80;;;;;;;17.51;42.04;101435.19;5102066;28;20192;-65
2021/10/25 09:12:08;;;;;;;9.77;8.40;;;;;;;17.15;43.20;101435.41;5120933;28;20207;-65
2021/10/25 09:14:36;;;;;;;9.13;8.00;;;;;;;18.65;39.99;101420.81;5122045;28;20428;-65
2021/10/25 09:17:05;;;;;;;11.13;8.60;;;;;;;18.14;40.99;101425.81;5121635;28;20472;-66
2021/10/25 09:19:32;;;;;;;9.57;8.43;;;;;;;17.44;41.26;101429.06;5121570;28;20421;-66
2021/10/25 09:22:16;;;;;;;10.73;7.80;;;;;;;18.95;39.70;101417.81;5121763;28;20413;-65
2021/10/25 09:24:57;;;;;;;12.70;8.00;;;;;;;18.50;40.97;101411.31;5121614;28;20487;-66
2021/10/25 09:27:30;;;;;;;9.30;8.40;;;;;;;17.90;41.20;101404.06;5122134;28;20826;-66
2021/10/25 09:30:00;;;;;;;9.87;8.97;;;;;;;17.47;42.53;101400.03;5121423;27;20409;-66
2021/10/25 09:32:32;;;;;;;8.47;7.60;;;;;;;18.18;41.28;101387.94;5121339;28;20457;-67
2021/10/25 09:34:59;;;;;;;8.50;7.57;;;;;;;16.94;43.82;101388.13;5121390;28;20437;-65
2021/10/25 09:37:29;;;;;;;8.83;8.03;;;;;;;16.12;45.94;101380.59;5121314;28;20471;-66
2021/10/25 09:40:01;;;;;;;9.73;8.57;;;;;;;16.74;44.77;101385.63;5121321;28;20406;-66
2021/10/25 09:51:06;;;;;;;15.33;9.00;;;;;;;17.04;43.57;101420.59;5110936;28;20515;-66
2021/10/25 09:53:43;;;;;;;10.23;9.23;;;;;;;18.56;41.02;101417.41;5100681;28;20414;-66
2021/10/25 09:56:10;;;;;;;10.53;8.80;;;;;;;18.22;41.06;101423.09;5100479;28;20420;-67
2021/10/25 09:58:44;;;;;;;10.83;8.53;;;;;;;18.54;41.85;101411.25;5100403;28;20807;-66
2021/10/25 10:01:11;;;;;;;9.60;8.63;;;;;;;17.95;41.15;101402.25;5100260;28;20471;-65
2021/10/25 10:03:37;;;;;;;10.10;8.83;;;;;;;17.89;42.69;101406.69;5100317;28;20453;-66
2021/10/25 10:06:02;;;;;;;8.87;7.97;;;;;;;17.70;43.85;101406.00;5082778;28;20446;-65
2021/10/25 10:08:27;;;;;;;9.70;8.03;;;;;;;18.45;41.41;101399.94;5100557;28;20221;-66
2021/10/25 10:10:56;;;;;;;8.70;7.83;;;;;;;18.26;40.44;101396.63;5070971;28;20185;-63
2021/10/25 10:13:26;;;;;;;9.40;8.40;;;;;;;19.57;39.74;101387.75;5045902;28;20173;-63
2021/10/25 10:15:55;;;;;;;10.10;8.30;;;;;;;18.73;40.05;101394.28;5063525;28;20407;-65
2021/10/25 10:18:23;;;;;;;9.20;8.30;;;;;;;18.97;40.25;101394.84;5079899;28;20524;-66
2021/10/25 10:20:52;;;;;;;9.33;8.30;;;;;;;18.21;42.46;101394.94;5062537;28;20835;-65
2021/10/25 10:23:19;;;;;;;9.23;8.40;;;;;;;19.02;40.53;101382.44;5079932;28;20419;-64
2021/10/25 10:25:56;;;;;;;8.67;7.87;;;;;;;18.43;41.33;101393.81;5062529;28;20490;-67
2021/10/25 10:28:51;;;;;;;8.80;7.87;;;;;;;18.84;40.73;101388.84;5080034;28;20827;-66
2021/10/25 10:31:18;;;;;;;8.10;7.40;;;;;;;19.45;39.84;101392.34;5062441;28;20449;-66
2021/10/25 10:33:46;;;;;;;8.67;7.87;;;;;;;18.60;41.82;101387.44;5079581;28;20436;-67
2021/10/25 10:36:27;;;;;;;9.03;7.60;;;;;;;18.94;41.23;101392.25;5079579;28;20415;-67
2021/10/25 10:39:04;;;;;;;9.00;8.10;;;;;;;19.26;41.01;101389.13;5079844;28;20490;-66
2021/10/25 10:41:39;;;;;;;9.40;7.80;;;;;;;18.69;41.85;101392.59;5065066;28;20803;-68
2021/10/25 10:44:07;;;;;;;8.87;7.97;;;;;;;18.13;43.18;101393.28;5080609;28;20864;-66
2021/10/25 10:46:40;;;;;;;9.93;8.30;;;;;;;16.55;46.86;101395.34;5080075;28;20415;-67
2021/10/25 10:49:27;;;;;;;9.90;8.23;;;;;;;16.37;47.62;101397.16;5079358;28;20461;-65
2021/10/25 10:52:23;;;;;;;10.20;8.80;;;;;;;16.20;48.54;101401.63;5079230;28;20907;-65
2021/10/25 10:55:00;;;;;;;10.40;9.30;;;;;;;16.28;48.83;101407.75;5078991;28;20425;-65
2021/10/25 11:00:29;;;;;;;9.30;7.93;;;;;;;14.42;53.48;101425.94;5078980;28;20484;-66
2021/10/25 11:02:59;;;;;;;9.27;8.40;;;;;;;14.37;54.46;101414.53;5079063;28;20419;-66
2021/10/25 11:05:31;;;;;;;8.90;8.00;;;;;;;14.59;53.74;101404.13;5078712;28;20439;-66
2021/10/25 11:08:16;;;;;;;11.47;7.73;;;;;;;14.97;53.22;101412.13;5078938;28;20447;-66
2021/10/25 11:10:43;;;;;;;11.60;8.60;;;;;;;15.10;53.22;101409.53;5088795;28;20489;-65
2021/10/25 11:13:15;;;;;;;10.73;9.27;;;;;;;14.81;53.46;101405.97;5098992;28;20883;-66
2021/10/25 11:16:02;;;;;;;9.87;8.97;;;;;;;15.14;52.71;101401.69;5099093;28;20406;-66
2021/10/25 11:18:32;;;;;;;18.17;11.40;;;;;;;15.08;52.15;101406.91;5099104;28;20457;-64
2021/10/25 11:21:13;;;;;;;17.43;9.53;;;;;;;15.34;52.02;101403.44;5098807;28;20505;-64
2021/10/25 11:23:55;;;;;;;14.00;9.80;;;;;;;15.22;52.04;101404.31;5098985;28;20803;-65
2021/10/25 11:26:32;;;;;;;10.07;8.33;;;;;;;15.20;51.71;101397.31;5098788;28;20501;-66
2021/10/25 11:29:15;;;;;;;9.07;8.17;;;;;;;14.41;53.82;101397.94;5098815;28;20414;-70
2021/10/25 11:31:49;;;;;;;10.13;8.27;;;;;;;14.14;55.11;101386.44;5099056;28;20815;-70
2021/10/25 11:34:24;;;;;;;12.43;9.83;;;;;;;14.37;54.63;101390.94;5099752;28;20421;-69
2021/10/25 11:37:00;;;;;;;10.90;8.30;;;;;;;14.30;54.85;101386.50;5099287;28;20461;-68
2021/10/25 11:39:28;;;;;;;12.60;9.43;;;;;;;14.43;54.93;101379.59;5099387;28;20413;-69
2021/10/25 11:41:53;;;;;;;9.53;8.60;;;;;;;14.38;55.09;101383.94;5099076;28;20402;-68
2021/10/25 11:44:19;;;;;;;9.23;8.33;;;;;;;14.05;56.02;101382.91;5099465;28;20445;-68
2021/10/25 11:46:44;;;;;;;9.93;8.93;;;;;;;14.28;55.50;101375.16;5099489;28;20445;-69
2021/10/25 11:49:10;;;;;;;13.33;10.00;;;;;;;14.35;55.56;101369.06;5098922;28;20168;-68
2021/10/25 11:51:50;;;;;;;11.27;8.60;;;;;;;14.23;56.22;101380.34;5098172;28;20223;-70
2021/10/25 11:54:16;;;;;;;13.60;9.30;;;;;;;14.23;56.82;101369.00;5098574;28;20511;-68
2021/10/25 11:56:54;;;;;;;9.60;8.60;;;;;;;14.45;56.06;101375.19;5098370;28;20563;-66
2021/10/25 11:59:20;;;;;;;10.10;9.17;;;;;;;14.03;57.43;101372.41;5098401;28;20179;-66
2021/10/25 12:01:46;;;;;;;9.83;8.87;;;;;;;14.20;57.41;101376.88;5098123;28;20414;-66
2021/10/25 12:04:13;;;;;;;10.10;8.50;;;;;;;14.21;57.09;101376.00;5081086;28;20213;-66
2021/10/25 12:06:39;;;;;;;9.53;8.57;;;;;;;14.19;57.37;101367.25;5097572;28;20406;-66
2021/10/25 12:09:06;;;;;;;19.20;16.13;;;;;;;14.45;56.91;101365.59;5098213;28;20420;-66
2021/10/25 12:12:02;;;;;;;12.93;10.23;;;;;;;14.08;58.00;101361.94;5081166;28;20632;-66
2021/10/25 12:14:28;;;;;;;11.77;8.90;;;;;;;14.30;57.13;101366.41;5076264;28;20508;-68
2021/10/25 12:16:54;;;;;;;11.90;9.50;;;;;;;13.90;59.11;101365.34;5077961;28;20459;-69
2021/10/25 12:19:20;;;;;;;11.57;9.60;;;;;;;14.13;58.23;101368.09;5077230;28;20415;-69
2021/10/25 12:21:46;;;;;;;12.30;8.57;;;;;;;14.04;58.85;101366.28;5060220;28;20445;-70
2021/10/25 12:24:12;;;;;;;13.23;9.73;;;;;;;14.05;58.90;101364.56;5078146;28;20450;-69
2021/10/25 12:26:42;;;;;;;10.13;8.53;;;;;;;14.11;58.91;101362.84;5079280;28;20411;-70
2021/10/25 12:29:15;;;;;;;8.90;7.70;;;;;;;14.02;59.45;101365.41;5077888;28;20180;-69
2021/10/25 12:31:41;;;;;;;8.30;7.60;;;;;;;14.00;59.68;101368.88;5077742;28;20425;-70
2021/10/25 12:34:06;;;;;;;10.33;7.33;;;;;;;13.86;60.36;101359.19;5077968;28;20419;-68
2021/10/25 12:36:36;;;;;;;9.37;7.23;;;;;;;14.03;60.11;101351.44;5077978;28;20168;-69
2021/10/25 12:39:09;;;;;;;9.63;7.27;;;;;;;13.97;60.78;101359.25;5077957;28;20169;-71
2021/10/25 12:41:55;;;;;;;8.90;6.77;;;;;;;14.17;60.30;101354.13;5076837;28;20677;-69
2021/10/25 12:44:35;;;;;;;7.73;7.03;;;;;;;14.22;59.91;101362.00;5060355;28;20411;-69
2021/10/25 12:47:05;;;;;;;8.40;7.60;;;;;;;14.24;60.52;101344.53;5077760;28;20410;-66
2021/10/25 12:49:31;;;;;;;10.40;7.40;;;;;;;14.05;61.19;101340.97;5077584;28;20386;-68
2021/10/25 12:52:02;;;;;;;9.60;7.60;;;;;;;14.07;61.07;101339.19;5077161;28;20454;-66
2021/10/25 12:54:33;;;;;;;8.23;6.77;;;;;;;13.97;61.55;101343.53;5077417;28;20434;-69
2021/10/25 12:57:01;;;;;;;12.70;8.40;;;;;;;14.03;61.62;101332.19;5077429;28;20521;-69
2021/10/25 12:59:27;;;;;;;7.93;7.13;;;;;;;14.17;61.27;101340.13;5078085;28;20394;-66